createdAt,value
2023-04-12T00:02:12.664Z,10.40
2023-04-12T00:04:41.712Z,10.34
2023-04-12T00:07:10.140Z,10.00
2023-04-12T00:09:39.350Z,10.10
2023-04-12T00:12:07.998Z,10.22
2023-04-12T00:14:37.802Z,10.05
2023-04-12T00:17:06.199Z,10.23
2023-04-12T00:19:34.297Z,10.02
2023-04-12T00:22:02.468Z,9.84
2023-04-12T00:24:30.555Z,9.68
2023-04-12T00:27:01.892Z,9.62
2023-04-12T00:29:30.032Z,9.36
2023-04-12T00:32:01.411Z,9.30
2023-04-12T00:34:31.819Z,9.53
2023-04-12T00:36:59.923Z,9.16
2023-04-12T00:39:28.396Z,9.18
2023-04-12T00:41:58.644Z,9.29
2023-04-12T00:44:26.763Z,9.26
2023-04-12T00:46:55.889Z,9.54
2023-04-12T00:49:30.788Z,9.44
2023-04-12T00:52:04.370Z,9.48
2023-04-12T00:54:33.212Z,9.13
2023-04-12T00:57:01.898Z,9.82
2023-04-12T00:59:32.377Z,9.82
2023-04-12T01:02:00.882Z,9.53
2023-04-12T01:04:34.515Z,9.06
2023-04-12T01:07:15.704Z,9.17
2023-04-12T01:09:51.401Z,9.49
2023-04-12T01:12:27.324Z,9.25
2023-04-12T01:14:59.273Z,8.98
2023-04-12T01:17:37.839Z,8.94
2023-04-12T01:20:13.674Z,9.09
2023-04-12T01:23:00.887Z,9.13
2023-04-12T01:25:39.198Z,8.69
2023-04-12T01:28:10.596Z,8.81
2023-04-12T01:30:39.541Z,9.34
2023-04-12T01:33:09.044Z,9.09
2023-04-12T01:35:39.141Z,8.86
2023-04-12T01:38:07.528Z,8.98
2023-04-12T01:40:36.477Z,8.69
2023-04-12T01:43:09.852Z,8.92
2023-04-12T01:45:38.276Z,9.24
2023-04-12T01:48:08.548Z,9.10
2023-04-12T01:50:40.864Z,9.45
2023-04-12T01:53:12.022Z,8.99
2023-04-12T01:55:41.173Z,9.17
2023-04-12T01:58:16.132Z,8.85
2023-04-12T02:00:45.368Z,9.16
2023-04-12T02:03:13.794Z,8.77
2023-04-12T02:05:42.518Z,8.73
2023-04-12T02:08:11.207Z,9.08
2023-04-12T02:10:40.417Z,8.84
2023-04-12T02:13:08.596Z,8.71
2023-04-12T02:15:40.582Z,9.41
2023-04-12T02:18:08.669Z,8.84
2023-04-12T02:20:40.748Z,9.12
2023-04-12T02:23:09.286Z,9.15
2023-04-12T02:25:38.587Z,9.02
2023-04-12T02:28:07.968Z,8.89
2023-04-12T02:30:36.296Z,8.72
2023-04-12T02:33:09.512Z,9.04
2023-04-12T02:35:38.538Z,9.12
2023-04-12T02:38:10.166Z,9.15
2023-04-12T02:40:42.127Z,9.33
2023-04-12T02:43:14.014Z,9.27
2023-04-12T02:45:46.177Z,8.95
2023-04-12T02:48:15.821Z,9.15
2023-04-12T02:50:44.782Z,8.94
2023-04-12T02:53:19.324Z,9.14
2023-04-12T02:55:57.331Z,8.87
2023-04-12T02:58:27.525Z,9.04
2023-04-12T03:01:00.057Z,9.35
2023-04-12T03:03:34.378Z,8.75
2023-04-12T03:06:13.429Z,8.94
2023-04-12T03:08:43.589Z,8.68
2023-04-12T03:11:14.131Z,8.91
2023-04-12T03:13:42.557Z,9.22
2023-04-12T03:16:23.862Z,9.03
2023-04-12T03:18:59.360Z,9.01
2023-04-12T03:21:28.905Z,9.04
2023-04-12T03:23:59.578Z,8.99
2023-04-12T03:26:32.046Z,9.25
2023-04-12T03:29:06.064Z,9.44
2023-04-12T03:31:36.254Z,8.82
2023-04-12T03:34:10.592Z,9.30
2023-04-12T03:36:43.337Z,9.26
2023-04-12T03:39:22.102Z,9.30
2023-04-12T03:41:53.215Z,9.34
2023-04-12T03:44:26.164Z,9.04
2023-04-12T03:46:56.503Z,8.87
2023-04-12T03:49:27.289Z,9.06
2023-04-12T03:51:55.580Z,9.13
2023-04-12T03:54:24.248Z,9.11
2023-04-12T03:57:06.098Z,8.89
2023-04-12T03:59:44.474Z,8.91
2023-04-12T04:02:15.950Z,9.27
2023-04-12T04:04:49.811Z,8.95
2023-04-12T04:07:26.455Z,8.78
2023-04-12T04:09:56.415Z,8.72
2023-04-12T04:12:28.013Z,9.09
2023-04-12T04:14:56.892Z,8.75
2023-04-12T04:17:32.897Z,8.64
2023-04-12T04:20:05.370Z,8.78
2023-04-12T04:22:35.542Z,9.11
2023-04-12T04:25:06.208Z,8.91
2023-04-12T04:27:38.584Z,9.02
2023-04-12T04:30:10.088Z,9.02
2023-04-12T04:32:43.211Z,9.08
2023-04-12T04:35:16.823Z,8.86
2023-04-12T04:38:04.088Z,9.08
2023-04-12T04:40:33.826Z,8.81
2023-04-12T04:43:03.527Z,9.08
2023-04-12T04:45:36.986Z,8.84
2023-04-12T04:48:05.356Z,8.89
2023-04-12T04:50:34.841Z,8.82
2023-04-12T04:53:04.681Z,9.00
2023-04-12T04:55:34.666Z,9.19
2023-04-12T04:58:02.826Z,9.08
2023-04-12T05:00:35.738Z,8.91
2023-04-12T05:03:04.346Z,8.68
2023-04-12T05:05:32.677Z,8.67
2023-04-12T05:08:09.931Z,8.94
2023-04-12T05:10:38.182Z,8.83
2023-04-12T05:13:06.229Z,9.02
2023-04-12T05:15:35.088Z,9.03
2023-04-12T05:18:03.234Z,8.58
2023-04-12T05:20:31.910Z,8.76
2023-04-12T05:23:01.217Z,8.81
2023-04-12T05:25:30.991Z,8.71
2023-04-12T05:28:13.939Z,8.93
2023-04-12T05:30:42.903Z,9.21
2023-04-12T05:33:12.536Z,9.02
2023-04-12T05:35:46.058Z,9.45
2023-04-12T05:38:16.554Z,9.16
2023-04-12T05:40:49.965Z,8.88
2023-04-12T05:43:22.817Z,9.21
2023-04-12T05:45:51.803Z,9.19
2023-04-12T05:48:23.177Z,9.13
2023-04-12T05:50:52.597Z,9.11
2023-04-12T05:53:23.793Z,8.96
2023-04-12T05:55:54.312Z,9.16
2023-04-12T05:58:23.361Z,9.01
2023-04-12T06:00:55.606Z,8.87
2023-04-12T06:03:25.153Z,9.16
2023-04-12T06:05:57.043Z,9.16
2023-04-12T06:08:25.787Z,9.60
2023-04-12T06:10:55.371Z,9.26
2023-04-12T06:13:23.646Z,9.58
2023-04-12T06:15:51.792Z,9.31
2023-04-12T06:18:26.496Z,9.07
2023-04-12T06:20:54.781Z,9.57
2023-04-12T06:23:23.574Z,9.38
2023-04-12T06:25:53.445Z,9.14
2023-04-12T06:28:23.240Z,9.94
2023-04-12T06:30:53.907Z,9.95
2023-04-12T06:33:22.910Z,9.51
2023-04-12T06:35:51.593Z,10.18
2023-04-12T06:38:19.779Z,9.54
2023-04-12T06:40:48.208Z,9.93
2023-04-12T06:43:16.817Z,9.86
2023-04-12T06:45:46.704Z,9.86
2023-04-12T06:48:14.871Z,9.85
2023-04-12T06:50:45.693Z,9.99
2023-04-12T06:53:14.509Z,9.78
2023-04-12T06:55:45.295Z,10.19
2023-04-12T06:58:13.392Z,9.72
2023-04-12T07:00:41.558Z,10.58
2023-04-12T07:03:11.364Z,10.65
2023-04-12T07:05:39.818Z,10.61
2023-04-12T07:08:08.805Z,10.39
2023-04-12T07:10:37.067Z,10.69
2023-04-12T07:13:08.137Z,10.11
2023-04-12T07:15:39.291Z,10.51
2023-04-12T07:18:07.560Z,10.38
2023-04-12T07:20:37.044Z,10.30
2023-04-12T07:23:05.231Z,10.27
2023-04-12T07:25:33.274Z,11.06
2023-04-12T07:28:01.432Z,10.54
2023-04-12T07:30:29.600Z,10.58
2023-04-12T07:33:08.391Z,10.40
2023-04-12T07:35:42.696Z,10.43
2023-04-12T07:38:10.899Z,10.69
2023-04-12T07:40:39.077Z,10.86
2023-04-12T07:43:07.122Z,11.18
2023-04-12T07:45:38.076Z,11.18
2023-04-12T07:48:06.498Z,10.97
2023-04-12T07:50:34.682Z,11.20
2023-04-12T07:53:17.640Z,10.78
2023-04-12T07:55:47.136Z,11.20
2023-04-12T07:58:15.335Z,11.08
2023-04-12T08:00:43.665Z,11.17
2023-04-12T08:03:12.687Z,11.00
2023-04-12T08:05:41.252Z,11.87
2023-04-12T08:08:10.490Z,11.64
2023-04-12T08:10:38.852Z,11.73
2023-04-12T08:13:10.291Z,12.08
2023-04-12T08:15:38.557Z,11.46
2023-04-12T08:18:06.744Z,12.13
2023-04-12T08:20:35.104Z,12.20
2023-04-12T08:23:03.227Z,11.56
2023-04-12T08:25:31.445Z,12.34
2023-04-12T08:27:59.579Z,11.89
2023-04-12T08:30:31.429Z,12.35
2023-04-12T08:32:59.581Z,12.47
2023-04-12T08:35:27.779Z,12.41
2023-04-12T08:37:55.882Z,12.53
2023-04-12T08:40:24.118Z,12.14
2023-04-12T08:42:53.771Z,12.42
2023-04-12T08:45:23.764Z,12.03
2023-04-12T08:47:53.232Z,12.47
2023-04-12T08:50:22.127Z,12.20
2023-04-12T08:52:50.430Z,12.52
2023-04-12T08:55:18.564Z,13.02
2023-04-12T08:57:47.184Z,13.52
2023-04-12T09:00:16.831Z,12.44
2023-04-12T09:02:47.152Z,12.47
2023-04-12T09:05:17.185Z,13.05
2023-04-12T09:07:45.277Z,12.37
2023-04-12T09:10:30.982Z,12.63
2023-04-12T09:13:01.726Z,12.74
2023-04-12T09:15:30.287Z,13.19
2023-04-12T09:18:06.032Z,12.20
2023-04-12T09:20:35.971Z,12.86
2023-04-12T09:23:17.452Z,12.74
2023-04-12T09:25:48.188Z,12.47
2023-04-12T09:28:24.175Z,12.72
2023-04-12T09:30:52.865Z,13.01
2023-04-12T09:33:21.560Z,12.49
2023-04-12T09:35:51.208Z,12.79
2023-04-12T09:38:19.370Z,12.53
2023-04-12T09:40:50.217Z,13.04
2023-04-12T09:43:18.402Z,13.26
2023-04-12T09:45:46.587Z,13.49
2023-04-12T09:48:19.799Z,13.22
2023-04-12T09:50:47.996Z,13.03
2023-04-12T09:53:19.055Z,13.12
2023-04-12T09:55:47.760Z,13.15
2023-04-12T09:58:19.969Z,13.64
2023-04-12T10:00:48.661Z,13.55
2023-04-12T10:03:17.000Z,13.21
2023-04-12T10:05:45.170Z,12.98
2023-04-12T10:08:13.329Z,13.18
2023-04-12T10:10:45.667Z,13.23
2023-04-12T10:13:14.128Z,13.25
2023-04-12T10:15:42.541Z,13.74
2023-04-12T10:18:12.306Z,13.65
2023-04-12T10:20:41.384Z,13.91
2023-04-12T10:23:12.642Z,13.81
2023-04-12T10:25:42.135Z,14.48
2023-04-12T10:28:18.722Z,14.33
2023-04-12T10:30:48.115Z,14.29
2023-04-12T10:33:20.335Z,13.89
2023-04-12T10:35:53.175Z,14.18
2023-04-12T10:38:21.673Z,14.34
2023-04-12T10:41:09.035Z,14.41
2023-04-12T10:43:41.209Z,14.58
2023-04-12T10:46:09.762Z,14.44
2023-04-12T10:48:38.692Z,14.62
2023-04-12T10:51:17.720Z,14.51
2023-04-12T10:53:46.672Z,14.27
2023-04-12T10:56:45.193Z,14.78
2023-04-12T10:59:19.847Z,15.14
2023-04-12T11:02:03.238Z,14.96
2023-04-12T11:04:31.681Z,15.75
2023-04-12T11:07:11.365Z,15.12
2023-04-12T11:09:58.541Z,15.54
2023-04-12T11:12:33.556Z,15.07
2023-04-12T11:15:06.154Z,15.60
2023-04-12T11:17:53.776Z,14.86
2023-04-12T11:20:21.932Z,14.67
2023-04-12T11:22:51.459Z,14.76
2023-04-12T11:25:19.621Z,14.74
2023-04-12T11:27:51.491Z,15.03
2023-04-12T11:30:21.175Z,15.68
2023-04-12T11:32:49.265Z,16.42
2023-04-12T11:35:20.245Z,15.34
2023-04-12T11:37:48.390Z,15.70
2023-04-12T11:40:16.843Z,16.19
2023-04-12T11:42:45.240Z,15.78
2023-04-12T11:45:17.956Z,15.91
2023-04-12T11:47:48.090Z,16.29
2023-04-12T11:50:28.590Z,16.33
2023-04-12T11:52:56.699Z,17.20
2023-04-12T11:55:24.727Z,16.97
2023-04-12T11:57:55.874Z,15.88
2023-04-12T12:00:25.445Z,16.49
2023-04-12T12:03:06.576Z,15.66
2023-04-12T12:05:38.354Z,15.50
2023-04-12T12:08:07.794Z,15.77
2023-04-12T12:10:46.964Z,16.21
2023-04-12T12:13:23.924Z,15.69
2023-04-12T12:15:52.899Z,16.00
2023-04-12T12:18:27.220Z,16.27
2023-04-12T12:20:55.779Z,15.79
2023-04-12T12:23:30.770Z,16.70
2023-04-12T12:26:10.584Z,16.72
2023-04-12T12:28:49.900Z,15.98
2023-04-12T12:31:20.395Z,16.12
2023-04-12T12:33:51.355Z,16.81
2023-04-12T12:36:20.920Z,16.86
2023-04-12T12:38:51.243Z,16.61
2023-04-12T12:41:20.437Z,16.58
2023-04-12T12:43:48.656Z,16.53
2023-04-12T12:46:17.638Z,16.36
2023-04-12T12:48:46.055Z,16.63
2023-04-12T12:51:17.735Z,16.53
2023-04-12T12:53:46.153Z,16.40
2023-04-12T12:56:14.455Z,16.03
2023-04-12T12:58:44.726Z,15.79
2023-04-12T13:01:12.858Z,15.83
2023-04-12T13:03:41.073Z,15.97
2023-04-12T13:06:09.889Z,15.84
2023-04-12T13:08:41.469Z,15.56
2023-04-12T13:11:09.528Z,15.38
2023-04-12T13:13:37.767Z,15.54
2023-04-12T13:16:06.451Z,16.06
2023-04-12T13:18:34.626Z,15.95
2023-04-12T13:21:05.113Z,16.72
2023-04-12T13:23:36.055Z,17.04
2023-04-12T13:26:05.889Z,16.87
2023-04-12T13:28:33.928Z,17.09
2023-04-12T13:31:02.124Z,17.13
2023-04-12T13:33:30.634Z,17.29
2023-04-12T13:35:58.717Z,17.64
2023-04-12T13:38:26.751Z,17.22
2023-04-12T13:40:56.281Z,17.93
2023-04-12T13:43:25.916Z,17.06
2023-04-12T13:45:54.017Z,17.12
2023-04-12T13:48:23.333Z,17.02
2023-04-12T13:50:52.988Z,16.31
2023-04-12T13:53:23.132Z,16.07
2023-04-12T13:55:51.224Z,15.75
2023-04-12T13:58:19.381Z,16.18
2023-04-12T14:00:48.965Z,16.39
2023-04-12T14:03:17.171Z,16.11
2023-04-12T14:05:45.512Z,16.41
2023-04-12T14:08:13.907Z,16.40
2023-04-12T14:10:41.929Z,16.04
2023-04-12T14:13:09.950Z,15.84
2023-04-12T14:15:38.023Z,15.75
2023-04-12T14:18:07.667Z,16.23
2023-04-12T14:20:38.132Z,15.67
2023-04-12T14:23:08.025Z,16.14
2023-04-12T14:25:36.934Z,17.37
2023-04-12T14:28:05.000Z,16.86
2023-04-12T14:30:33.330Z,16.74
2023-04-12T14:33:01.431Z,17.01
2023-04-12T14:35:30.975Z,16.63
2023-04-12T14:37:59.049Z,16.39
2023-04-12T14:40:27.087Z,16.27
2023-04-12T14:42:55.432Z,15.86
2023-04-12T14:45:23.604Z,15.74
2023-04-12T14:47:51.727Z,15.55
2023-04-12T14:50:19.859Z,15.45
2023-04-12T14:52:49.395Z,14.96
2023-04-12T14:55:17.933Z,14.77
2023-04-12T14:57:46.223Z,-143.11
2023-04-12T15:00:16.234Z,-143.11
2023-04-12T15:02:46.110Z,-143.11
2023-04-12T15:05:14.917Z,-143.11
2023-04-12T15:07:43.355Z,-143.11
2023-04-12T15:10:14.242Z,-143.11
2023-04-12T15:12:42.713Z,-143.11
2023-04-12T15:15:11.411Z,-143.11
2023-04-12T15:17:39.709Z,-143.11
2023-04-12T15:20:11.440Z,-143.11
2023-04-12T15:22:40.157Z,-143.11
2023-04-12T15:25:11.540Z,-143.11
2023-04-12T15:27:41.338Z,-143.11
2023-04-12T15:30:09.846Z,-143.11
2023-04-12T15:32:41.410Z,-143.11
2023-04-12T15:37:42.586Z,-143.11
2023-04-12T15:40:13.624Z,-143.11
2023-04-12T15:42:45.508Z,-143.11
2023-04-12T15:45:16.222Z,-143.11
2023-04-12T15:47:45.942Z,-143.11
2023-04-12T15:50:14.194Z,-143.11
2023-04-12T15:52:44.210Z,-143.11
2023-04-12T15:55:12.785Z,-143.11
2023-04-12T15:57:40.956Z,-143.11
2023-04-12T16:00:14.029Z,-143.11
2023-04-12T16:02:49.781Z,-143.11
2023-04-12T16:05:18.267Z,-143.11
2023-04-12T16:07:46.378Z,-143.11
2023-04-12T16:10:14.445Z,-143.11
2023-04-12T16:12:42.600Z,-143.11
2023-04-12T16:15:12.891Z,-143.11
2023-04-12T16:17:40.983Z,-143.11
2023-04-12T16:20:10.586Z,-143.11
2023-04-12T16:22:38.995Z,-143.11
2023-04-12T16:25:08.354Z,-143.11
2023-04-12T16:27:36.826Z,-143.11
2023-04-12T16:30:05.908Z,-143.11
2023-04-12T16:32:36.088Z,-143.11
2023-04-12T16:35:04.776Z,-143.11
2023-04-12T16:37:33.217Z,-143.11
2023-04-12T16:40:02.102Z,-143.11
2023-04-12T16:42:31.777Z,-143.11
2023-04-12T16:45:02.260Z,-143.11
2023-04-12T16:47:30.415Z,-143.11
2023-04-12T16:50:00.088Z,-143.11
2023-04-12T16:52:28.262Z,-143.11
2023-04-12T16:54:56.965Z,-143.11
2023-04-12T16:57:25.064Z,-143.11
2023-04-12T16:59:53.220Z,-143.11
2023-04-12T17:02:24.566Z,-143.11
2023-04-12T17:04:55.538Z,-143.11
2023-04-12T17:07:24.918Z,-143.11
2023-04-12T17:09:53.084Z,-143.11
2023-04-12T17:12:21.402Z,-143.11
2023-04-12T17:14:51.179Z,-143.11
2023-04-12T17:17:19.238Z,-143.11
2023-04-12T17:19:47.345Z,-143.11
2023-04-12T17:22:18.013Z,-143.11
2023-04-12T17:24:48.451Z,-143.11
2023-04-12T17:27:16.648Z,-143.11
2023-04-12T17:29:44.752Z,-143.11
2023-04-12T17:32:15.240Z,-143.11
2023-04-12T17:34:43.694Z,-143.11
2023-04-12T17:37:11.780Z,-143.11
2023-04-12T17:39:42.321Z,-143.11
2023-04-12T17:42:11.749Z,-143.11
2023-04-12T17:44:39.848Z,-143.11
2023-04-12T17:47:07.963Z,-143.11
2023-04-12T17:49:36.131Z,-143.11
2023-04-12T17:52:04.218Z,-143.11
2023-04-12T17:54:33.611Z,-143.11
2023-04-12T17:57:03.659Z,-143.11
2023-04-12T17:59:33.110Z,-143.11
2023-04-12T18:02:02.308Z,-143.11
2023-04-12T18:04:30.693Z,-143.11
2023-04-12T18:07:04.441Z,-143.11
2023-04-12T18:09:35.308Z,-143.11
2023-04-12T18:12:03.534Z,-143.11
2023-04-12T18:14:34.894Z,-143.11
2023-04-12T18:17:03.212Z,-143.11
2023-04-12T18:19:31.708Z,-143.11
2023-04-12T18:22:00.269Z,-143.11
2023-04-12T18:24:28.723Z,-143.11
2023-04-12T18:26:59.228Z,-143.11
2023-04-12T18:29:29.620Z,-143.11
2023-04-12T18:31:59.354Z,-143.11
2023-04-12T18:34:29.392Z,-143.11
2023-04-12T18:36:57.511Z,-143.11
2023-04-12T18:39:25.543Z,-143.11
2023-04-12T18:41:56.657Z,-143.11
2023-04-12T18:44:24.809Z,-143.11
2023-04-12T18:46:52.936Z,-143.11
2023-04-12T18:49:22.519Z,-143.11
2023-04-12T18:51:53.102Z,-143.11
2023-04-12T18:54:21.280Z,-143.11
2023-04-12T18:56:49.571Z,-143.11
2023-04-12T18:59:20.613Z,-143.11
2023-04-12T19:01:48.712Z,-143.11
2023-04-12T19:04:18.089Z,-143.11
2023-04-12T19:06:50.176Z,-143.11
2023-04-12T19:09:18.309Z,-143.11
2023-04-12T19:11:46.500Z,-143.11
2023-04-12T19:14:17.504Z,-143.11
2023-04-12T19:16:46.172Z,-143.11
2023-04-12T19:19:14.499Z,-143.11
2023-04-12T19:21:45.308Z,-143.11
2023-04-12T19:24:14.773Z,-143.11
2023-04-12T19:26:46.924Z,-143.11
2023-04-12T19:29:15.946Z,-143.11
2023-04-12T19:31:45.858Z,-143.11
2023-04-12T19:34:18.722Z,-143.11
2023-04-12T19:36:47.558Z,-143.11
2023-04-12T19:39:18.460Z,-143.11
2023-04-12T19:41:48.416Z,-143.11
2023-04-12T19:44:16.536Z,-143.11
2023-04-12T19:46:44.647Z,-143.11
2023-04-12T19:49:13.353Z,-143.11
2023-04-12T19:51:41.553Z,-143.11
2023-04-12T19:54:09.913Z,-143.11
2023-04-12T19:56:39.382Z,-143.11
2023-04-12T19:59:10.458Z,-143.11
2023-04-12T20:01:47.607Z,-143.11
2023-04-12T20:04:16.559Z,-143.11
2023-04-12T20:06:45.138Z,-143.11
2023-04-12T20:09:14.043Z,-143.11
2023-04-12T20:11:43.641Z,-143.11
2023-04-12T20:14:11.715Z,-143.11
2023-04-12T20:16:42.623Z,-143.11
2023-04-12T20:19:11.042Z,-143.11
2023-04-12T20:21:39.203Z,-143.11
2023-04-12T20:24:08.691Z,-143.11
2023-04-12T20:26:37.329Z,-143.11
2023-04-12T20:29:07.936Z,-143.11
2023-04-12T20:31:37.012Z,-143.11
2023-04-12T20:34:06.266Z,-143.11
2023-04-12T20:36:34.602Z,-143.11
2023-04-12T20:39:02.765Z,-143.11
2023-04-12T20:41:30.916Z,-143.11
2023-04-12T20:43:59.423Z,-143.11
2023-04-12T20:46:29.534Z,-143.11
2023-04-12T20:48:58.274Z,-143.11
2023-04-12T20:51:27.724Z,-143.11
2023-04-12T20:53:58.408Z,-143.11
2023-04-12T20:56:29.160Z,-143.11
2023-04-12T20:58:57.563Z,-143.11
2023-04-12T21:01:26.007Z,-143.11
2023-04-12T21:03:55.827Z,-143.11
2023-04-12T21:06:24.975Z,-143.11
2023-04-12T21:08:53.708Z,-143.11
2023-04-12T21:11:22.150Z,-143.11
2023-04-12T21:13:53.174Z,-143.11
2023-04-12T21:16:21.384Z,-143.11
2023-04-12T21:18:49.687Z,-143.11
2023-04-12T21:21:20.025Z,-143.11
2023-04-12T21:23:48.527Z,-143.11
2023-04-12T21:26:16.657Z,-143.11
2023-04-12T21:28:44.810Z,-143.11
2023-04-12T21:31:12.925Z,-143.11
2023-04-12T21:33:41.665Z,-143.11
2023-04-12T21:36:10.110Z,-143.11
2023-04-12T21:38:39.488Z,-143.11
2023-04-12T21:41:07.737Z,-143.11
2023-04-12T21:43:37.933Z,-143.11
2023-04-12T21:46:07.749Z,-143.11
2023-04-12T21:48:36.393Z,-143.11
2023-04-12T21:51:04.715Z,-143.11
2023-04-12T21:53:32.855Z,-143.11
2023-04-12T21:56:02.350Z,-143.11
2023-04-12T21:58:32.438Z,-143.11
2023-04-12T22:02:39.819Z,8.20
2023-04-12T22:05:08.759Z,8.13
2023-04-12T22:07:40.814Z,8.09
2023-04-12T22:10:10.138Z,8.32
2023-04-12T22:12:38.353Z,8.17
2023-04-12T22:15:06.822Z,8.11
2023-04-12T22:17:34.978Z,8.00
2023-04-12T22:20:08.473Z,8.05
2023-04-12T22:22:37.793Z,8.20
2023-04-12T22:25:07.587Z,8.27
2023-04-12T22:27:36.243Z,8.27
2023-04-12T22:30:04.435Z,8.19
2023-04-12T22:32:33.519Z,8.24
2023-04-12T22:35:08.315Z,8.16
2023-04-12T22:37:38.923Z,8.21
2023-04-12T22:40:11.708Z,8.19
2023-04-12T22:42:46.889Z,8.32
2023-04-12T22:45:17.740Z,7.99
2023-04-12T22:47:48.262Z,8.28
2023-04-12T22:50:16.328Z,7.88
2023-04-12T22:52:49.591Z,7.93
2023-04-12T22:55:18.226Z,8.18
2023-04-12T22:57:47.090Z,7.96
2023-04-12T23:00:18.010Z,8.07
2023-04-12T23:02:47.784Z,8.02
2023-04-12T23:05:16.217Z,7.84
2023-04-12T23:07:44.400Z,7.98
2023-04-12T23:10:13.831Z,8.06
2023-04-12T23:12:41.908Z,7.74
2023-04-12T23:15:12.707Z,7.96
2023-04-12T23:17:40.919Z,8.30
2023-04-12T23:20:13.072Z,8.08
2023-04-12T23:22:57.420Z,7.86
2023-04-12T23:25:39.683Z,7.82
2023-04-12T23:28:12.564Z,7.47
2023-04-12T23:30:43.306Z,7.57
2023-04-12T23:33:13.972Z,7.71
2023-04-12T23:35:43.751Z,7.40
2023-04-12T23:38:15.375Z,8.04
2023-04-12T23:40:44.820Z,7.70
2023-04-12T23:43:12.896Z,7.55
2023-04-12T23:45:41.381Z,7.78
2023-04-12T23:48:11.823Z,7.45
2023-04-12T23:50:40.200Z,7.60
2023-04-12T23:53:08.402Z,7.52
2023-04-12T23:55:36.469Z,7.59
2023-04-12T23:58:08.190Z,7.31
